Forside
METAR-TAF:

METAR-TAF

Lufthavne :

Hohn, Tyskland

Breddekreds: 54-19N, længdekreds: 009-32E, højde: 12 m

Aktuelle vejr

Denne rapport blev lavet for 31 minutter siden, kl. 15:20 UTC
Vind 10 kt fra vest
Temperatur 17°C
Fugtighed 52%
Tryk 1022 hPa
Sigt 10 km eller mere
Nogle få skyer i en højde af 3000 ft
Brudte skyer i en højde af 28000 ft

METAR: ETNH 081520Z 26010KT 9999 FEW030 BKN280 17/07 Q1022 BLU+BLU+

Tid: 17:51 (15:51 UTC)

Vejrudsigter

Denne rapport blev lavet for 5 timer og 41 minutter siden, kl. 10:10 UTC
Foreløbig gælder fra 08 på 11 UTC til 08 på 23 UTC
Vind 7 kt fra syd
Sigt 10 km eller mere
Spredte skyer i en højde af 6000 ft
Spredte skyer i en højde af 25000 ft
ændring
fra 08 på 11 UTC til 08 på 13 UTC
Vind 5 kt fra vest
Sigt 10 km eller mere
Brudte skyer i en højde af 25000 ft

TAF: ETNH 081010Z 0811/0823 17007KT 9999 NSW SCT060 SCT250 BECMG 0811/0813 28005KT 9999 NSW BKN250 BY ETGL

Vejrobservationer og prognoser fra mere end 4000 lufthavne (METAR og TAF).

De gule og røde prikker repræsenterer de meteorologiske stationer.

Flyt musen over at se navnet på stationen.

Så klik over at se vejr observationer og prognoser.

At skifte det kort: Klik på de grønne knapper med et sort kors for at zoome ind; på den grønne knap med en bindestreg for at zoome ud; eller på de grønne pile for tilstødende kort.


METAR-TAF: